createdAt,value
2017-11-15T00:01:50.108Z,81.76
2017-11-15T00:03:51.844Z,80.94
2017-11-15T00:05:53.290Z,81.21
2017-11-15T00:07:54.723Z,81.35
2017-11-15T00:09:56.460Z,81.31
2017-11-15T00:11:58.045Z,81.36
2017-11-15T00:14:00.319Z,81.40
2017-11-15T00:16:01.626Z,81.50
2017-11-15T00:18:03.315Z,81.68
2017-11-15T00:20:04.751Z,81.31
2017-11-15T00:22:06.665Z,81.35
2017-11-15T00:24:07.904Z,81.47
2017-11-15T00:26:09.519Z,81.46
2017-11-15T00:28:10.990Z,81.29
2017-11-15T00:30:12.366Z,81.31
2017-11-15T00:32:13.879Z,81.85
2017-11-15T00:34:15.427Z,81.68
2017-11-15T00:36:16.768Z,81.59
2017-11-15T00:38:18.335Z,81.49
2017-11-15T00:40:19.643Z,81.37
2017-11-15T00:42:21.031Z,81.46
2017-11-15T00:44:22.684Z,81.26
2017-11-15T00:46:24.234Z,81.74
2017-11-15T00:48:25.667Z,81.74
2017-11-15T00:50:27.443Z,81.59
2017-11-15T00:52:28.998Z,81.69
2017-11-15T00:54:30.331Z,81.97
2017-11-15T00:56:31.767Z,82.21
2017-11-15T00:58:33.098Z,81.72
2017-11-15T01:00:34.678Z,81.82
2017-11-15T01:02:35.949Z,81.62
2017-11-15T01:04:37.593Z,81.86
2017-11-15T01:06:39.546Z,81.82
2017-11-15T01:08:41.207Z,81.86
2017-11-15T01:10:42.488Z,81.65
2017-11-15T01:12:43.793Z,81.76
2017-11-15T01:14:45.460Z,81.74
2017-11-15T01:16:47.410Z,81.84
2017-11-15T01:18:48.852Z,81.65
2017-11-15T01:20:50.193Z,81.78
2017-11-15T01:22:51.503Z,81.98
2017-11-15T01:24:53.609Z,82.14
2017-11-15T01:26:55.262Z,81.86
2017-11-15T01:28:56.718Z,81.76
2017-11-15T01:30:57.999Z,81.75
2017-11-15T01:32:59.323Z,82.04
2017-11-15T01:35:00.650Z,81.60
2017-11-15T01:37:02.106Z,81.86
2017-11-15T01:39:03.563Z,81.76
2017-11-15T01:41:05.000Z,81.71
2017-11-15T01:43:06.353Z,82.10
2017-11-15T01:45:07.716Z,81.72
2017-11-15T01:47:09.151Z,81.70
2017-11-15T01:49:10.634Z,81.91
2017-11-15T01:51:12.252Z,82.00
2017-11-15T01:53:14.623Z,82.12
2017-11-15T01:55:15.888Z,81.81
2017-11-15T01:57:17.531Z,82.03
2017-11-15T01:59:18.976Z,82.04
2017-11-15T02:01:20.448Z,81.96
2017-11-15T02:03:21.767Z,82.12
2017-11-15T02:05:23.203Z,81.95
2017-11-15T02:07:24.569Z,82.19
2017-11-15T02:09:26.021Z,82.07
2017-11-15T02:11:27.334Z,82.16
2017-11-15T02:13:29.021Z,82.03
2017-11-15T02:15:30.373Z,82.32
2017-11-15T02:17:31.788Z,81.96
2017-11-15T02:19:33.174Z,81.89
2017-11-15T02:21:34.419Z,82.23
2017-11-15T02:23:35.860Z,82.01
2017-11-15T02:25:37.224Z,82.33
2017-11-15T02:27:38.869Z,81.78
2017-11-15T02:29:40.447Z,82.21
2017-11-15T02:31:42.599Z,82.11
2017-11-15T02:33:44.764Z,82.08
2017-11-15T02:35:46.050Z,82.02
2017-11-15T02:37:48.257Z,81.79
2017-11-15T02:39:49.598Z,82.16
2017-11-15T02:41:51.069Z,82.14
2017-11-15T02:43:53.432Z,82.03
2017-11-15T02:45:54.889Z,82.16
2017-11-15T02:47:56.400Z,82.47
2017-11-15T02:49:57.775Z,82.28
2017-11-15T02:51:59.371Z,82.10
2017-11-15T02:54:00.716Z,82.26
2017-11-15T02:56:02.240Z,82.13
2017-11-15T02:58:03.576Z,82.30
2017-11-15T03:00:04.925Z,82.07
2017-11-15T03:02:06.384Z,81.93
2017-11-15T03:04:07.827Z,82.18
2017-11-15T03:06:09.169Z,82.01
2017-11-15T03:08:10.436Z,82.05
2017-11-15T03:10:11.882Z,82.14
2017-11-15T03:12:13.180Z,82.51
2017-11-15T03:14:14.772Z,82.19
2017-11-15T03:16:16.217Z,82.29
2017-11-15T03:18:17.760Z,82.34
2017-11-15T03:20:19.034Z,82.21
2017-11-15T03:22:20.672Z,82.24
2017-11-15T03:24:21.991Z,82.03
2017-11-15T03:26:23.372Z,82.49
2017-11-15T03:28:24.707Z,82.18
2017-11-15T03:30:26.271Z,82.16
2017-11-15T03:32:27.612Z,82.14
2017-11-15T03:34:28.858Z,82.30
2017-11-15T03:36:30.099Z,82.29
2017-11-15T03:38:31.562Z,82.29
2017-11-15T03:40:33.095Z,82.23
2017-11-15T03:42:34.632Z,82.28
2017-11-15T03:44:37.036Z,82.28
2017-11-15T03:46:38.416Z,82.17
2017-11-15T03:48:39.820Z,82.35
2017-11-15T03:50:41.395Z,82.14
2017-11-15T03:52:42.622Z,82.18
2017-11-15T03:54:44.177Z,82.35
2017-11-15T03:56:45.619Z,82.32
2017-11-15T03:58:47.079Z,82.27
2017-11-15T04:00:48.611Z,82.45
2017-11-15T04:02:49.909Z,82.36
2017-11-15T04:04:51.233Z,82.22
2017-11-15T04:06:52.523Z,82.55
2017-11-15T04:08:53.917Z,82.51
2017-11-15T04:10:55.280Z,82.25
2017-11-15T04:12:56.542Z,82.35
2017-11-15T04:14:58.269Z,82.33
2017-11-15T04:16:59.610Z,82.58
2017-11-15T04:19:01.164Z,82.41
2017-11-15T04:21:02.621Z,82.36
2017-11-15T04:23:04.156Z,82.21
2017-11-15T04:25:05.712Z,82.25
2017-11-15T04:27:07.796Z,82.50
2017-11-15T04:29:09.129Z,82.42
2017-11-15T04:31:10.418Z,82.51
2017-11-15T04:33:12.128Z,82.46
2017-11-15T04:35:13.590Z,82.57
2017-11-15T04:37:15.131Z,82.54
2017-11-15T04:39:16.398Z,82.51
2017-11-15T04:41:19.463Z,82.45
2017-11-15T04:43:20.891Z,82.60
2017-11-15T04:45:22.357Z,82.44
2017-11-15T04:47:23.697Z,82.64
2017-11-15T04:49:25.256Z,82.55
2017-11-15T04:51:26.611Z,82.46
2017-11-15T04:53:28.073Z,82.41
2017-11-15T04:55:29.743Z,82.79
2017-11-15T04:57:31.609Z,82.59
2017-11-15T04:59:33.130Z,82.54
2017-11-15T05:01:34.472Z,82.56
2017-11-15T05:03:35.807Z,82.55
2017-11-15T05:05:37.268Z,82.47
2017-11-15T05:07:38.837Z,82.38
2017-11-15T05:09:40.155Z,82.47
2017-11-15T05:11:41.600Z,82.46
2017-11-15T05:13:43.056Z,82.69
2017-11-15T05:15:44.455Z,82.68
2017-11-15T05:17:45.984Z,82.32
2017-11-15T05:19:47.402Z,82.41
2017-11-15T05:21:48.705Z,82.47
2017-11-15T05:23:50.106Z,82.64
2017-11-15T05:25:51.560Z,82.57
2017-11-15T05:27:53.017Z,82.64
2017-11-15T05:29:54.568Z,82.49
2017-11-15T05:31:56.117Z,82.29
2017-11-15T05:33:57.655Z,82.54
2017-11-15T05:35:59.223Z,82.49
2017-11-15T05:38:00.766Z,82.57
2017-11-15T05:40:02.112Z,82.55
2017-11-15T05:42:03.459Z,82.48
2017-11-15T05:44:04.887Z,82.50
2017-11-15T05:46:06.281Z,82.54
2017-11-15T05:48:07.601Z,82.75
2017-11-15T05:50:08.905Z,82.58
2017-11-15T05:52:10.606Z,82.78
2017-11-15T05:54:11.960Z,82.55
2017-11-15T05:56:13.526Z,82.51
2017-11-15T05:58:15.177Z,82.79
2017-11-15T06:00:16.729Z,82.72
2017-11-15T06:02:18.285Z,82.71
2017-11-15T06:04:19.852Z,82.60
2017-11-15T06:06:21.392Z,82.51
2017-11-15T06:08:23.138Z,82.47
2017-11-15T06:10:24.660Z,82.50
2017-11-15T06:12:26.266Z,82.57
2017-11-15T06:14:27.834Z,82.56
2017-11-15T06:16:29.789Z,82.80
2017-11-15T06:18:31.427Z,82.79
2017-11-15T06:20:33.066Z,82.64
2017-11-15T06:22:34.560Z,82.56
2017-11-15T06:24:36.202Z,82.56
2017-11-15T06:26:38.070Z,82.64
2017-11-15T06:28:40.332Z,82.73
2017-11-15T06:30:42.023Z,82.60
2017-11-15T06:32:43.842Z,82.67
2017-11-15T06:34:45.473Z,82.70
2017-11-15T06:36:47.048Z,82.59
2017-11-15T06:38:48.665Z,82.92
2017-11-15T06:40:50.333Z,82.72
2017-11-15T06:42:52.185Z,82.67
2017-11-15T06:44:53.743Z,82.67
2017-11-15T06:46:55.403Z,82.62
2017-11-15T06:48:56.967Z,82.60
2017-11-15T06:50:58.595Z,82.65
2017-11-15T06:53:00.469Z,82.57
2017-11-15T06:55:02.221Z,82.68
2017-11-15T06:57:03.760Z,82.54
2017-11-15T06:59:05.331Z,82.52
2017-11-15T07:01:06.977Z,82.54
2017-11-15T07:03:08.630Z,82.60
2017-11-15T07:05:10.174Z,82.62
2017-11-15T07:07:12.547Z,82.69
2017-11-15T07:09:14.110Z,82.67
2017-11-15T07:11:15.764Z,82.64
2017-11-15T07:13:17.441Z,82.53
2017-11-15T07:15:19.169Z,82.77
2017-11-15T07:17:22.576Z,82.99
2017-11-15T07:19:23.895Z,83.09
2017-11-15T07:21:25.148Z,82.98
2017-11-15T07:23:26.796Z,83.01
2017-11-15T07:25:28.285Z,82.97
2017-11-15T07:27:29.906Z,82.90
2017-11-15T07:29:31.445Z,82.89
2017-11-15T07:31:33.109Z,82.73
2017-11-15T07:33:34.759Z,82.71
2017-11-15T07:35:36.315Z,82.74
2017-11-15T07:37:37.979Z,82.82
2017-11-15T07:39:39.616Z,82.69
2017-11-15T07:41:41.184Z,82.63
2017-11-15T07:43:42.737Z,82.64
2017-11-15T07:45:44.384Z,82.60
2017-11-15T07:47:45.936Z,82.55
2017-11-15T07:49:47.465Z,82.65
2017-11-15T07:51:48.950Z,82.55
2017-11-15T07:53:50.469Z,82.60
2017-11-15T07:55:52.832Z,82.51
2017-11-15T07:57:54.302Z,82.48
2017-11-15T07:59:55.940Z,82.57
2017-11-15T08:01:57.510Z,82.54
2017-11-15T08:03:59.153Z,82.50
2017-11-15T08:06:00.580Z,82.53
2017-11-15T08:08:02.159Z,82.52
2017-11-15T08:10:03.699Z,82.53
2017-11-15T08:12:05.260Z,82.41
2017-11-15T08:14:06.904Z,82.57
2017-11-15T08:16:08.460Z,82.58
2017-11-15T08:18:09.906Z,82.58
2017-11-15T08:20:11.355Z,82.53
2017-11-15T08:22:13.009Z,82.57
2017-11-15T08:24:14.656Z,82.58
2017-11-15T08:26:16.313Z,82.62
2017-11-15T08:28:17.756Z,82.61
2017-11-15T08:30:19.417Z,82.51
2017-11-15T08:32:20.828Z,82.49
2017-11-15T08:34:22.514Z,82.62
2017-11-15T08:36:24.100Z,82.67
2017-11-15T08:38:25.913Z,82.65
2017-11-15T08:40:27.459Z,82.57
2017-11-15T08:42:29.023Z,82.60
2017-11-15T08:44:30.463Z,82.59
2017-11-15T08:46:32.158Z,82.57
2017-11-15T08:48:33.781Z,82.60
2017-11-15T08:50:37.548Z,82.55
2017-11-15T08:52:38.883Z,82.57
2017-11-15T08:54:40.370Z,82.64
2017-11-15T08:56:41.834Z,82.48
2017-11-15T08:58:43.370Z,82.54
2017-11-15T09:00:45.635Z,82.56
2017-11-15T09:02:47.198Z,82.58
2017-11-15T09:04:48.730Z,82.57
2017-11-15T09:06:50.279Z,82.66
2017-11-15T09:08:51.837Z,82.70
2017-11-15T09:10:53.285Z,82.68
2017-11-15T09:12:55.761Z,82.69
2017-11-15T09:14:57.211Z,83.06
2017-11-15T09:16:58.767Z,82.96
2017-11-15T09:19:00.314Z,82.91
2017-11-15T09:21:01.968Z,82.98
2017-11-15T09:23:03.561Z,82.78
2017-11-15T09:25:04.946Z,82.88
2017-11-15T09:27:06.520Z,82.69
2017-11-15T09:29:08.046Z,82.77
2017-11-15T09:31:09.711Z,82.75
2017-11-15T09:33:11.039Z,82.83
2017-11-15T09:35:12.377Z,82.74
2017-11-15T09:37:14.152Z,82.89
2017-11-15T09:39:15.698Z,82.72
2017-11-15T09:41:17.159Z,82.74
2017-11-15T09:43:18.816Z,82.65
2017-11-15T09:45:20.356Z,82.25
2017-11-15T09:47:21.909Z,82.19
2017-11-15T09:49:27.254Z,81.80
2017-11-15T09:51:28.544Z,81.96
2017-11-15T09:53:30.750Z,81.74
2017-11-15T09:55:32.104Z,82.05
2017-11-15T09:57:33.652Z,81.94
2017-11-15T09:59:35.317Z,82.01
2017-11-15T10:01:36.758Z,81.80
2017-11-15T10:03:38.091Z,81.69
2017-11-15T10:05:39.438Z,81.62
2017-11-15T10:07:40.785Z,81.20
2017-11-15T10:09:42.343Z,81.59
2017-11-15T10:11:43.783Z,81.33
2017-11-15T10:13:45.217Z,81.22
2017-11-15T10:15:46.801Z,81.20
2017-11-15T10:17:48.236Z,81.22
2017-11-15T10:19:49.784Z,81.39
2017-11-15T10:21:51.429Z,81.17
2017-11-15T10:23:53.078Z,81.25
2017-11-15T10:25:54.655Z,81.19
2017-11-15T10:27:56.306Z,81.45
2017-11-15T10:29:57.945Z,81.40
2017-11-15T10:32:00.317Z,81.38
2017-11-15T10:34:01.649Z,81.39
2017-11-15T10:36:03.113Z,81.41
2017-11-15T10:38:04.767Z,81.35
2017-11-15T10:40:06.208Z,81.42
2017-11-15T10:42:07.671Z,81.12
2017-11-15T10:44:09.427Z,81.23
2017-11-15T10:46:10.980Z,81.65
2017-11-15T10:48:12.703Z,81.34
2017-11-15T10:50:14.380Z,81.51
2017-11-15T10:52:16.029Z,81.42
2017-11-15T10:54:17.701Z,81.64
2017-11-15T10:56:19.331Z,81.57
2017-11-15T10:58:20.790Z,81.49
2017-11-15T11:00:22.332Z,81.42
2017-11-15T11:02:23.882Z,81.34
2017-11-15T11:04:25.433Z,81.68
2017-11-15T11:06:26.990Z,81.84
2017-11-15T11:08:28.423Z,81.92
2017-11-15T11:10:29.879Z,81.64
2017-11-15T11:12:31.434Z,81.75
2017-11-15T11:14:32.885Z,81.63
2017-11-15T11:16:34.545Z,81.38
2017-11-15T11:18:36.079Z,81.53
2017-11-15T11:20:37.641Z,81.61
2017-11-15T11:22:39.181Z,81.53
2017-11-15T11:24:40.647Z,81.62
2017-11-15T11:26:42.080Z,81.78
2017-11-15T11:28:43.638Z,81.65
2017-11-15T11:30:45.280Z,81.62
2017-11-15T11:32:47.198Z,81.57
2017-11-15T11:34:48.752Z,81.42
2017-11-15T11:36:50.244Z,81.40
2017-11-15T11:38:51.694Z,81.46
2017-11-15T11:40:53.130Z,81.49
2017-11-15T11:42:54.705Z,81.54
2017-11-15T11:44:56.237Z,81.49
2017-11-15T11:46:57.804Z,81.83
2017-11-15T11:48:59.350Z,81.71
2017-11-15T11:51:00.793Z,81.65
2017-11-15T11:53:02.239Z,81.50
2017-11-15T11:55:04.530Z,81.47
2017-11-15T11:57:06.052Z,81.46
2017-11-15T11:59:07.589Z,81.41
2017-11-15T12:01:09.169Z,81.41
2017-11-15T12:03:10.833Z,81.41
2017-11-15T12:05:12.590Z,81.39
2017-11-15T12:07:14.112Z,81.40
2017-11-15T12:09:15.879Z,81.33
2017-11-15T12:11:17.522Z,81.33
2017-11-15T12:13:18.831Z,81.27
2017-11-15T12:15:20.428Z,81.32
2017-11-15T12:17:21.779Z,81.27
2017-11-15T12:19:23.212Z,81.44
2017-11-15T12:21:24.738Z,81.37
2017-11-15T12:23:26.320Z,81.26
2017-11-15T12:25:29.626Z,81.34
2017-11-15T12:27:31.155Z,81.23
2017-11-15T12:29:32.615Z,81.18
2017-11-15T12:31:34.258Z,81.22
2017-11-15T12:33:35.805Z,81.21
2017-11-15T12:35:37.259Z,81.23
2017-11-15T12:37:40.354Z,81.19
2017-11-15T12:39:41.798Z,81.23
2017-11-15T12:41:43.359Z,81.10
2017-11-15T12:43:45.542Z,81.14
2017-11-15T12:45:47.166Z,81.16
2017-11-15T12:47:48.826Z,81.12
2017-11-15T12:49:50.366Z,81.07
2017-11-15T12:51:51.907Z,81.08
2017-11-15T12:53:53.475Z,81.17
2017-11-15T12:55:55.115Z,81.06
2017-11-15T12:57:56.670Z,81.13
2017-11-15T12:59:58.324Z,81.08
2017-11-15T13:01:59.984Z,81.09
2017-11-15T13:04:01.645Z,81.23
2017-11-15T13:06:02.974Z,81.48
2017-11-15T13:08:04.801Z,81.34
2017-11-15T13:10:06.577Z,81.19
2017-11-15T13:12:08.137Z,81.23
2017-11-15T13:14:09.936Z,81.21
2017-11-15T13:16:11.561Z,81.16
2017-11-15T13:18:13.088Z,81.27
2017-11-15T13:20:14.660Z,81.28
2017-11-15T13:22:16.101Z,81.29
2017-11-15T13:24:17.848Z,81.33
2017-11-15T13:26:19.611Z,81.45
2017-11-15T13:28:21.049Z,81.62
2017-11-15T13:30:22.597Z,81.47
2017-11-15T13:32:24.091Z,81.50
2017-11-15T13:34:25.706Z,81.42
2017-11-15T13:36:27.178Z,81.56
2017-11-15T13:38:28.817Z,81.54
2017-11-15T13:40:30.231Z,81.52
2017-11-15T13:42:31.709Z,81.53
2017-11-15T13:44:33.245Z,81.46
2017-11-15T13:46:34.706Z,81.47
2017-11-15T13:48:36.252Z,81.46
2017-11-15T13:50:38.324Z,81.34
2017-11-15T13:52:40.675Z,81.33
2017-11-15T13:54:42.140Z,81.42
2017-11-15T13:56:43.459Z,81.35
2017-11-15T13:58:44.814Z,81.29
2017-11-15T14:00:46.269Z,81.22
2017-11-15T14:02:47.711Z,81.40
2017-11-15T14:04:49.063Z,81.41
2017-11-15T14:06:51.032Z,81.30
2017-11-15T14:08:53.280Z,81.18
2017-11-15T14:10:54.860Z,81.14
2017-11-15T14:12:56.398Z,81.15
2017-11-15T14:14:58.054Z,81.26
2017-11-15T14:17:00.411Z,81.18
2017-11-15T14:19:01.931Z,81.18
2017-11-15T14:21:03.540Z,81.17
2017-11-15T14:23:05.079Z,81.14
2017-11-15T14:25:06.826Z,81.19
2017-11-15T14:27:08.372Z,81.15
2017-11-15T14:29:10.118Z,81.33
2017-11-15T14:31:11.786Z,81.42
2017-11-15T14:33:13.376Z,81.49
2017-11-15T14:35:14.979Z,81.59
2017-11-15T14:37:16.633Z,81.67
2017-11-15T14:39:18.193Z,81.67
2017-11-15T14:41:19.851Z,81.39
2017-11-15T14:43:21.601Z,81.26
2017-11-15T14:45:23.357Z,81.25
2017-11-15T14:47:26.024Z,81.22
2017-11-15T14:49:27.673Z,81.25
2017-11-15T14:51:30.121Z,81.41
2017-11-15T14:53:34.885Z,81.36
2017-11-15T14:55:36.731Z,81.29
2017-11-15T14:57:38.597Z,81.11
2017-11-15T14:59:40.150Z,81.06
2017-11-15T15:01:41.911Z,80.95
2017-11-15T15:03:43.565Z,81.01
2017-11-15T15:05:45.312Z,80.96
2017-11-15T15:07:46.837Z,81.03
2017-11-15T15:09:48.286Z,80.92
2017-11-15T15:11:49.761Z,80.98
2017-11-15T15:13:51.626Z,81.01
2017-11-15T15:15:53.359Z,80.99
2017-11-15T15:17:55.138Z,80.97
2017-11-15T15:19:56.677Z,80.95
2017-11-15T15:21:58.342Z,80.89
2017-11-15T15:23:59.877Z,80.79
2017-11-15T15:26:01.347Z,80.76
2017-11-15T15:28:03.256Z,80.72
2017-11-15T15:30:05.254Z,80.74
2017-11-15T15:32:07.116Z,80.74
2017-11-15T15:34:08.849Z,80.73
2017-11-15T15:36:10.682Z,80.69
2017-11-15T15:38:12.007Z,80.72
2017-11-15T15:40:13.996Z,80.73
2017-11-15T15:42:15.997Z,80.68
2017-11-15T15:44:17.832Z,80.79
2017-11-15T15:46:19.550Z,80.78
2017-11-15T15:48:21.445Z,80.72
2017-11-15T15:50:23.056Z,80.73
2017-11-15T15:52:24.772Z,80.69
2017-11-15T15:54:26.530Z,80.64
2017-11-15T15:56:28.284Z,80.68
2017-11-15T15:58:30.143Z,80.79
2017-11-15T16:00:31.897Z,80.87
2017-11-15T16:02:33.376Z,80.85
2017-11-15T16:04:35.377Z,80.84
2017-11-15T16:06:37.261Z,80.90
2017-11-15T16:08:39.017Z,80.86
2017-11-15T16:10:40.900Z,80.78
2017-11-15T16:12:42.822Z,80.95
2017-11-15T16:14:44.816Z,80.92
2017-11-15T16:16:46.619Z,80.84
2017-11-15T16:18:48.167Z,80.96
2017-11-15T16:20:49.684Z,80.88
2017-11-15T16:22:51.492Z,80.95
2017-11-15T16:24:53.365Z,80.92
2017-11-15T16:26:55.294Z,80.79
2017-11-15T16:28:56.964Z,80.83
2017-11-15T16:30:58.917Z,80.77
2017-11-15T16:33:00.817Z,80.76
2017-11-15T16:35:02.534Z,80.79
2017-11-15T16:37:04.404Z,80.73
2017-11-15T16:39:06.154Z,80.70
2017-11-15T16:41:08.632Z,80.83
2017-11-15T16:43:10.383Z,80.78
2017-11-15T16:45:11.930Z,80.73
2017-11-15T16:47:13.696Z,80.70
2017-11-15T16:49:15.289Z,80.64
2017-11-15T16:51:16.907Z,80.74
2017-11-15T16:53:18.652Z,80.69
2017-11-15T16:55:20.627Z,80.62
2017-11-15T16:57:22.362Z,80.65
2017-11-15T16:59:24.117Z,80.59
2017-11-15T17:01:25.995Z,80.63
2017-11-15T17:03:28.002Z,80.65
2017-11-15T17:05:30.211Z,80.67
2017-11-15T17:07:32.060Z,80.71
2017-11-15T17:09:33.847Z,80.65
2017-11-15T17:11:35.687Z,80.69
2017-11-15T17:13:38.155Z,80.70
2017-11-15T17:15:40.227Z,80.61
2017-11-15T17:17:42.076Z,80.61
2017-11-15T17:19:43.823Z,80.65
2017-11-15T17:21:45.688Z,80.64
2017-11-15T17:23:47.434Z,80.62
2017-11-15T17:25:49.396Z,80.54
2017-11-15T17:27:51.165Z,80.57
2017-11-15T17:29:53.013Z,80.63
2017-11-15T17:31:54.894Z,80.58
2017-11-15T17:33:56.820Z,80.65
2017-11-15T17:35:58.702Z,80.75
2017-11-15T17:38:00.654Z,80.70
2017-11-15T17:40:02.306Z,80.83
2017-11-15T17:42:04.063Z,80.83
2017-11-15T17:44:05.938Z,80.68
2017-11-15T17:46:07.771Z,80.63
2017-11-15T17:48:09.645Z,80.68
2017-11-15T17:50:11.616Z,80.64
2017-11-15T17:52:13.456Z,80.80
2017-11-15T17:54:15.233Z,80.91
2017-11-15T17:56:17.360Z,80.85
2017-11-15T17:58:19.119Z,80.82
2017-11-15T18:00:20.978Z,80.82
2017-11-15T18:02:22.850Z,80.74
2017-11-15T18:04:24.699Z,80.77
2017-11-15T18:06:26.446Z,80.75
2017-11-15T18:08:28.306Z,80.83
2017-11-15T18:10:30.091Z,80.87
2017-11-15T18:12:31.816Z,83.57
2017-11-15T18:14:33.658Z,83.00
2017-11-15T18:16:35.110Z,83.07
2017-11-15T18:18:36.875Z,83.20
2017-11-15T18:20:38.845Z,82.58
2017-11-15T18:22:40.614Z,82.61
2017-11-15T18:24:42.354Z,82.29
2017-11-15T18:26:44.537Z,81.94
2017-11-15T18:28:46.570Z,82.06
2017-11-15T18:30:48.440Z,81.97
2017-11-15T18:32:50.080Z,81.66
2017-11-15T18:34:51.838Z,81.06
2017-11-15T18:36:53.626Z,81.47
2017-11-15T18:38:55.670Z,81.22
2017-11-15T18:40:57.420Z,81.25
2017-11-15T18:42:59.170Z,80.95
2017-11-15T18:45:01.045Z,80.90
2017-11-15T18:47:02.885Z,80.96
2017-11-15T18:49:04.652Z,80.74
2017-11-15T18:51:06.300Z,80.90
2017-11-15T18:53:08.266Z,80.86
2017-11-15T18:55:09.816Z,80.70
2017-11-15T18:57:12.059Z,80.73
2017-11-15T18:59:14.150Z,80.76
2017-11-15T19:01:15.918Z,80.68
2017-11-15T19:03:17.889Z,80.74
2017-11-15T19:05:19.734Z,80.67
2017-11-15T19:07:22.179Z,80.59
2017-11-15T19:09:24.034Z,80.51
2017-11-15T19:11:25.798Z,80.45
2017-11-15T19:13:27.568Z,80.49
2017-11-15T19:15:29.408Z,80.32
2017-11-15T19:17:31.175Z,80.42
2017-11-15T19:19:33.133Z,80.44
2017-11-15T19:21:34.975Z,80.34
2017-11-15T19:23:36.653Z,80.28
2017-11-15T19:25:43.222Z,80.29
2017-11-15T19:27:45.061Z,80.28
2017-11-15T19:29:46.822Z,80.24
2017-11-15T19:31:48.582Z,80.27
2017-11-15T19:33:50.431Z,80.20
2017-11-15T19:35:52.207Z,80.28
2017-11-15T19:37:54.040Z,80.24
2017-11-15T19:39:55.812Z,80.21
2017-11-15T19:41:57.564Z,80.34
2017-11-15T19:43:59.319Z,80.32
2017-11-15T19:46:00.961Z,80.25
2017-11-15T19:48:02.740Z,80.48
2017-11-15T19:50:04.397Z,80.40
2017-11-15T19:52:06.224Z,80.32
2017-11-15T19:54:07.975Z,80.51
2017-11-15T19:56:09.741Z,80.46
2017-11-15T19:58:11.587Z,80.39
2017-11-15T20:00:13.339Z,80.41
2017-11-15T20:02:15.113Z,80.46
2017-11-15T20:04:17.062Z,80.42
2017-11-15T20:06:18.919Z,80.54
2017-11-15T20:08:20.880Z,80.48
2017-11-15T20:10:22.746Z,80.50
2017-11-15T20:12:24.523Z,80.47
2017-11-15T20:14:26.268Z,80.53
2017-11-15T20:16:28.133Z,80.49
2017-11-15T20:18:30.004Z,80.52
2017-11-15T20:20:31.870Z,80.47
2017-11-15T20:22:34.009Z,80.51
2017-11-15T20:24:35.752Z,80.49
2017-11-15T20:26:37.498Z,80.42
2017-11-15T20:28:39.465Z,80.48
2017-11-15T20:30:41.219Z,80.62
2017-11-15T20:32:43.079Z,80.55
2017-11-15T20:34:44.924Z,80.60
2017-11-15T20:36:46.602Z,80.58
2017-11-15T20:38:48.337Z,80.57
2017-11-15T20:40:50.117Z,80.56
2017-11-15T20:42:52.031Z,80.55
2017-11-15T20:44:53.809Z,80.58
2017-11-15T20:46:55.696Z,80.62
2017-11-15T20:48:57.539Z,80.71
2017-11-15T20:50:59.287Z,80.54
2017-11-15T20:53:01.143Z,80.60
2017-11-15T20:55:02.907Z,80.58
2017-11-15T20:57:04.657Z,80.60
2017-11-15T20:59:06.423Z,80.67
2017-11-15T21:01:08.272Z,80.57
2017-11-15T21:03:10.028Z,80.66
2017-11-15T21:05:12.143Z,80.62
2017-11-15T21:07:13.929Z,80.72
2017-11-15T21:09:15.597Z,80.62
2017-11-15T21:11:17.511Z,80.59
2017-11-15T21:13:19.525Z,80.53
2017-11-15T21:15:21.159Z,80.67
2017-11-15T21:17:22.933Z,80.62
2017-11-15T21:19:24.585Z,80.65
2017-11-15T21:21:26.328Z,80.65
2017-11-15T21:23:28.208Z,80.68
2017-11-15T21:25:30.048Z,80.56
2017-11-15T21:27:31.813Z,80.73
2017-11-15T21:29:33.579Z,80.66
2017-11-15T21:31:36.134Z,80.62
2017-11-15T21:33:37.912Z,80.65
2017-11-15T21:35:39.871Z,80.61
2017-11-15T21:37:42.920Z,80.67
2017-11-15T21:39:45.505Z,80.76
2017-11-15T21:41:47.262Z,80.73
2017-11-15T21:43:49.017Z,80.90
2017-11-15T21:45:50.785Z,80.85
2017-11-15T21:47:52.648Z,80.78
2017-11-15T21:49:54.478Z,80.87
2017-11-15T21:51:56.967Z,80.80
2017-11-15T21:53:58.726Z,80.69
2017-11-15T21:56:00.461Z,80.69
2017-11-15T21:58:02.147Z,80.82
2017-11-15T22:00:04.091Z,80.78
2017-11-15T22:02:05.858Z,80.81
2017-11-15T22:04:07.808Z,80.73
2017-11-15T22:06:09.790Z,80.77
2017-11-15T22:08:11.621Z,80.93
2017-11-15T22:10:13.406Z,80.78
2017-11-15T22:12:15.251Z,80.85
2017-11-15T22:14:17.197Z,80.84
2017-11-15T22:16:18.947Z,80.88
2017-11-15T22:18:20.870Z,80.86
2017-11-15T22:20:22.881Z,80.94
2017-11-15T22:22:24.619Z,80.88
2017-11-15T22:24:26.393Z,80.99
2017-11-15T22:26:28.251Z,80.87
2017-11-15T22:28:30.019Z,80.85
2017-11-15T22:30:31.859Z,80.95
2017-11-15T22:32:33.604Z,81.00
2017-11-15T22:34:35.285Z,81.02
2017-11-15T22:36:37.227Z,81.05
2017-11-15T22:38:39.013Z,80.96
2017-11-15T22:40:40.951Z,81.00
2017-11-15T22:42:42.694Z,80.95
2017-11-15T22:44:44.457Z,80.95
2017-11-15T22:46:46.250Z,81.09
2017-11-15T22:48:48.072Z,81.08
2017-11-15T22:50:49.925Z,80.96
2017-11-15T22:52:51.719Z,80.99
2017-11-15T22:54:53.631Z,81.00
2017-11-15T22:56:55.401Z,80.96
2017-11-15T22:58:57.262Z,80.93
2017-11-15T23:00:59.204Z,80.94
2017-11-15T23:03:00.971Z,80.91
2017-11-15T23:05:02.728Z,80.86
2017-11-15T23:07:04.586Z,80.89
2017-11-15T23:09:06.434Z,80.99
2017-11-15T23:11:08.181Z,81.01
2017-11-15T23:13:09.940Z,80.91
2017-11-15T23:15:11.701Z,80.95
2017-11-15T23:17:13.358Z,81.02
2017-11-15T23:19:15.205Z,81.02
2017-11-15T23:21:17.261Z,81.11
2017-11-15T23:23:19.239Z,81.13
2017-11-15T23:25:21.304Z,81.05
2017-11-15T23:27:23.071Z,81.10
2017-11-15T23:29:24.923Z,81.08
2017-11-15T23:31:26.872Z,81.12
2017-11-15T23:33:28.825Z,81.04
2017-11-15T23:35:30.558Z,81.04
2017-11-15T23:39:39.216Z,81.11
2017-11-15T23:41:40.970Z,81.29
2017-11-15T23:43:42.721Z,81.17
2017-11-15T23:45:44.377Z,81.11
2017-11-15T23:47:46.135Z,81.17
2017-11-15T23:49:48.916Z,81.13
2017-11-15T23:51:50.667Z,81.32
2017-11-15T23:53:52.313Z,81.24
2017-11-15T23:55:54.000Z,81.18
2017-11-15T23:57:55.668Z,81.16
2017-11-15T23:59:57.485Z,81.19
